Anderson, Alaska
Current Conditions -  °F | °C
As of 4:53 AM on Thursday 23 Oct 2014 (Local Time) from PANN Reporting Station
Overcast Overcast  
Wind Chill: 23°   Ceiling: 4000
Heat Index: 23°   Visibility: 10mi
Dew Point: 15°   Wind: 0mph
Humidity: 72%   Direction: NA
Pressure: 29.79"   Gusts: NA
Location:  64.34°N, 149.19°W
Report Text: PANN 231253Z AUTO 00000KT 10SM OVC040 M05/M09 A2979 RMK AO2 SLP099 T10501094 TSNO
Loading
Personal Weather Stations






























Interactive Weather Map
Tropical Storm Tracking
New forecast layout! Learn more

10-Day Weather Forecast

Advertisements
Track Severe Weather on mobile